createdAt,value
2022-12-17T00:02:34.253Z,15.47
2022-12-17T00:05:55.993Z,15.34
2022-12-17T00:09:17.408Z,15.35
2022-12-17T00:12:38.320Z,15.39
2022-12-17T00:15:59.302Z,15.37
2022-12-17T00:19:19.970Z,15.35
2022-12-17T00:22:40.800Z,15.32
2022-12-17T00:26:01.601Z,15.27
2022-12-17T00:29:25.265Z,15.26
2022-12-17T00:32:58.894Z,15.18
2022-12-17T00:36:21.218Z,15.10
2022-12-17T00:39:42.191Z,14.95
2022-12-17T00:43:06.672Z,15.00
2022-12-17T00:46:27.480Z,14.94
2022-12-17T00:49:48.226Z,14.96
2022-12-17T00:53:11.645Z,14.94
2022-12-17T00:56:32.980Z,15.02
2022-12-17T00:59:53.911Z,14.95
2022-12-17T01:03:29.925Z,15.13
2022-12-17T01:06:50.836Z,15.12
2022-12-17T01:10:13.887Z,15.14
2022-12-17T01:13:36.395Z,15.33
2022-12-17T01:16:57.423Z,15.30
2022-12-17T01:20:18.158Z,15.34
2022-12-17T01:23:39.756Z,15.21
2022-12-17T01:27:01.500Z,15.13
2022-12-17T01:30:22.737Z,15.07
2022-12-17T01:33:43.460Z,15.07
2022-12-17T01:37:04.397Z,15.05
2022-12-17T01:40:25.725Z,15.12
2022-12-17T01:44:15.196Z,15.02
2022-12-17T01:47:37.094Z,15.06
2022-12-17T01:51:03.282Z,15.06
2022-12-17T01:54:24.471Z,15.21
2022-12-17T01:57:45.972Z,15.32
2022-12-17T02:01:06.878Z,15.27
2022-12-17T02:04:29.444Z,15.20
2022-12-17T02:08:05.133Z,15.23
2022-12-17T02:11:48.141Z,15.27
2022-12-17T02:15:17.977Z,15.13
2022-12-17T02:18:47.058Z,14.99
2022-12-17T02:22:16.495Z,14.94
2022-12-17T02:25:55.322Z,14.84
2022-12-17T02:29:17.483Z,14.90
2022-12-17T02:32:40.819Z,14.96
2022-12-17T02:36:06.160Z,14.96
2022-12-17T02:39:26.808Z,15.07
2022-12-17T02:42:49.776Z,15.31
2022-12-17T02:46:11.161Z,15.32
2022-12-17T02:49:32.388Z,15.36
2022-12-17T02:52:59.780Z,15.30
2022-12-17T02:56:24.323Z,15.35
2022-12-17T02:59:45.089Z,15.21
2022-12-17T03:03:10.714Z,15.21
2022-12-17T03:06:40.332Z,14.98
2022-12-17T03:10:00.782Z,15.11
2022-12-17T03:13:22.881Z,15.05
2022-12-17T03:16:43.744Z,14.99
2022-12-17T03:20:04.393Z,15.00
2022-12-17T03:23:28.288Z,15.06
2022-12-17T03:26:49.946Z,14.96
2022-12-17T03:30:14.315Z,14.96
2022-12-17T03:33:37.308Z,15.14
2022-12-17T03:36:58.915Z,15.19
2022-12-17T03:40:19.873Z,15.23
2022-12-17T03:43:41.258Z,15.24
2022-12-17T03:47:02.078Z,15.16
2022-12-17T03:50:23.923Z,15.30
2022-12-17T03:53:46.276Z,15.13
2022-12-17T03:57:11.739Z,15.05
2022-12-17T04:00:35.749Z,15.02
2022-12-17T04:03:56.223Z,15.12
2022-12-17T04:07:18.152Z,15.19
2022-12-17T04:10:44.157Z,15.23
2022-12-17T04:14:05.819Z,15.23
2022-12-17T04:17:26.959Z,15.30
2022-12-17T04:20:48.385Z,15.37
2022-12-17T04:24:10.664Z,15.38
2022-12-17T04:27:31.478Z,15.35
2022-12-17T04:30:52.666Z,15.33
2022-12-17T04:34:14.166Z,15.27
2022-12-17T04:37:35.188Z,15.33
2022-12-17T04:40:57.001Z,15.29
2022-12-17T04:44:17.552Z,15.16
2022-12-17T04:47:38.583Z,15.11
2022-12-17T04:50:59.372Z,15.03
2022-12-17T04:54:20.168Z,14.87
2022-12-17T04:57:41.088Z,15.04
2022-12-17T05:01:01.988Z,15.01
2022-12-17T05:04:22.755Z,15.04
2022-12-17T05:07:43.680Z,15.09
2022-12-17T05:11:24.445Z,15.35
2022-12-17T05:14:45.382Z,15.74
2022-12-17T05:18:06.125Z,15.96
2022-12-17T05:21:30.536Z,16.02
2022-12-17T05:24:54.811Z,16.09
2022-12-17T05:28:15.889Z,16.30
2022-12-17T05:31:37.861Z,16.40
2022-12-17T05:34:59.095Z,16.36
2022-12-17T05:38:27.969Z,16.54
2022-12-17T05:41:48.421Z,16.83
2022-12-17T05:45:09.599Z,17.02
2022-12-17T05:48:30.207Z,17.55
2022-12-17T05:51:50.894Z,17.63
2022-12-17T05:55:11.501Z,17.42
2022-12-17T05:58:32.335Z,17.33
2022-12-17T06:01:53.467Z,17.22
2022-12-17T06:05:15.204Z,17.19
2022-12-17T06:08:35.741Z,17.10
2022-12-17T06:12:02.356Z,17.41
2022-12-17T06:15:24.630Z,18.08
2022-12-17T06:18:45.500Z,18.81
2022-12-17T06:22:06.123Z,19.26
2022-12-17T06:25:27.329Z,19.51
2022-12-17T06:29:02.639Z,19.68
2022-12-17T06:32:25.518Z,19.03
2022-12-17T06:35:46.517Z,18.01
2022-12-17T06:39:07.219Z,17.22
2022-12-17T06:42:27.797Z,17.04
2022-12-17T06:45:48.283Z,17.63
2022-12-17T06:49:09.047Z,18.59
2022-12-17T06:52:29.615Z,18.60
2022-12-17T06:55:51.521Z,18.47
2022-12-17T06:59:12.896Z,18.90
2022-12-17T07:02:34.239Z,18.99
2022-12-17T07:05:55.188Z,18.93
2022-12-17T07:09:16.005Z,18.78
2022-12-17T07:12:37.042Z,18.89
2022-12-17T07:15:58.590Z,18.82
2022-12-17T07:19:23.860Z,18.63
2022-12-17T07:22:47.755Z,18.48
2022-12-17T07:26:08.493Z,18.37
2022-12-17T07:29:30.546Z,18.21
2022-12-17T07:32:51.363Z,17.92
2022-12-17T07:36:13.883Z,17.76
2022-12-17T07:39:34.612Z,17.60
2022-12-17T07:42:55.409Z,17.47
2022-12-17T07:46:16.286Z,17.27
2022-12-17T07:49:47.568Z,17.23
2022-12-17T07:53:17.791Z,17.16
2022-12-17T07:56:38.362Z,17.12
2022-12-17T07:59:59.445Z,17.11
2022-12-17T08:03:20.432Z,17.06
2022-12-17T08:06:43.093Z,16.87
2022-12-17T08:10:03.958Z,17.37
2022-12-17T08:13:25.320Z,17.67
2022-12-17T08:16:46.293Z,17.36
2022-12-17T08:20:07.475Z,16.90
2022-12-17T08:23:28.199Z,16.93
2022-12-17T08:26:51.580Z,16.81
2022-12-17T08:30:12.470Z,16.93
2022-12-17T08:33:33.434Z,16.69
2022-12-17T08:36:54.578Z,16.73
2022-12-17T08:40:15.413Z,17.18
2022-12-17T08:43:37.550Z,17.62
2022-12-17T08:46:58.861Z,18.53
2022-12-17T08:50:19.675Z,19.23
2022-12-17T08:53:40.909Z,19.87
2022-12-17T08:57:01.982Z,20.27
2022-12-17T09:00:25.371Z,20.76
2022-12-17T09:03:45.911Z,20.91
2022-12-17T09:07:09.177Z,20.95
2022-12-17T09:10:30.332Z,20.53
2022-12-17T09:13:51.237Z,20.29
2022-12-17T09:17:13.070Z,20.11
2022-12-17T09:20:35.137Z,20.32
2022-12-17T09:23:57.326Z,20.55
2022-12-17T09:27:18.800Z,20.53
2022-12-17T09:30:59.933Z,20.69
2022-12-17T09:34:21.617Z,20.74
2022-12-17T09:37:42.698Z,20.88
2022-12-17T09:41:06.709Z,20.73
2022-12-17T09:44:38.160Z,19.32
2022-12-17T09:48:26.890Z,18.82
2022-12-17T09:51:53.279Z,18.48
2022-12-17T09:55:13.835Z,18.42
2022-12-17T09:58:41.510Z,18.57
2022-12-17T10:02:03.285Z,18.53
2022-12-17T10:05:29.949Z,18.57
2022-12-17T10:08:50.755Z,18.46
2022-12-17T10:12:11.591Z,18.51
2022-12-17T10:15:34.530Z,18.57
2022-12-17T10:19:02.311Z,18.85
2022-12-17T10:22:29.342Z,19.01
2022-12-17T10:25:50.041Z,18.84
2022-12-17T10:29:20.449Z,18.23
2022-12-17T10:32:45.068Z,18.18
2022-12-17T10:36:05.906Z,18.00
2022-12-17T10:39:37.495Z,17.87
2022-12-17T10:42:59.005Z,17.67
2022-12-17T10:46:19.874Z,17.47
2022-12-17T10:49:42.938Z,17.40
2022-12-17T10:53:05.940Z,17.36
2022-12-17T10:56:40.401Z,17.32
2022-12-17T11:00:02.105Z,17.23
2022-12-17T11:03:22.859Z,17.23
2022-12-17T11:06:49.921Z,17.08
2022-12-17T11:10:15.124Z,16.97
2022-12-17T11:13:56.285Z,16.99
2022-12-17T11:17:22.235Z,16.93
2022-12-17T11:20:53.420Z,16.97
2022-12-17T11:24:22.426Z,16.96
2022-12-17T11:27:48.936Z,16.99
2022-12-17T11:31:35.387Z,17.02
2022-12-17T11:35:23.970Z,16.91
2022-12-17T11:38:58.107Z,16.95
2022-12-17T11:42:20.977Z,16.95
2022-12-17T11:45:55.010Z,16.76
2022-12-17T11:49:30.982Z,17.01
2022-12-17T11:53:09.034Z,16.75
2022-12-17T11:56:57.692Z,16.96
2022-12-17T12:00:39.506Z,16.81
2022-12-17T12:04:43.056Z,16.99
2022-12-17T12:08:16.680Z,17.31
2022-12-17T12:11:57.275Z,17.14
2022-12-17T12:15:20.854Z,17.20
2022-12-17T12:19:19.950Z,17.23
2022-12-17T12:22:52.714Z,17.12
2022-12-17T12:26:40.247Z,16.94
2022-12-17T12:30:22.447Z,17.06
2022-12-17T12:34:09.135Z,16.98
2022-12-17T12:37:34.274Z,16.83
2022-12-17T12:41:01.811Z,16.89
2022-12-17T12:44:34.985Z,16.61
2022-12-17T12:48:01.339Z,16.63
2022-12-17T12:51:48.750Z,16.47
2022-12-17T12:55:13.241Z,16.41
2022-12-17T12:58:49.110Z,16.30
2022-12-17T13:02:13.748Z,16.80
2022-12-17T13:05:37.463Z,16.69
2022-12-17T13:08:41.161Z,16.72
2022-12-17T13:11:55.202Z,16.68
2022-12-17T13:15:17.313Z,16.82
2022-12-17T13:18:40.601Z,16.65
2022-12-17T13:21:44.252Z,16.74
2022-12-17T13:24:49.261Z,16.47
2022-12-17T13:27:51.666Z,16.40
2022-12-17T13:31:06.390Z,16.14
2022-12-17T13:34:28.092Z,15.88
2022-12-17T13:38:24.914Z,16.32
2022-12-17T13:41:31.041Z,16.20
2022-12-17T13:44:44.056Z,15.80
2022-12-17T13:47:54.387Z,15.49
2022-12-17T13:51:00.357Z,15.56
2022-12-17T13:54:04.956Z,15.46
2022-12-17T13:57:16.665Z,15.47
2022-12-17T14:00:25.300Z,15.36
2022-12-17T14:04:05.945Z,15.28
2022-12-17T14:07:04.777Z,15.37
2022-12-17T14:10:17.695Z,15.31
2022-12-17T14:13:21.177Z,15.27
2022-12-17T14:16:26.105Z,15.48
2022-12-17T14:19:31.000Z,15.35
2022-12-17T14:22:40.234Z,15.35
2022-12-17T14:26:15.742Z,15.27
2022-12-17T14:29:29.150Z,15.25
2022-12-17T14:32:36.789Z,15.27
2022-12-17T14:35:40.799Z,15.30
2022-12-17T14:38:58.155Z,15.27
2022-12-17T14:42:31.407Z,15.17
2022-12-17T14:45:53.739Z,15.37
2022-12-17T14:49:03.221Z,15.36
2022-12-17T14:52:17.843Z,15.39
2022-12-17T14:55:34.467Z,15.30
2022-12-17T14:58:54.209Z,15.17
2022-12-17T15:02:01.586Z,15.24
2022-12-17T15:05:04.979Z,15.19
2022-12-17T15:08:09.208Z,15.11
2022-12-17T15:11:13.137Z,15.19
2022-12-17T15:14:20.151Z,15.25
2022-12-17T15:17:22.348Z,15.20
2022-12-17T15:20:24.497Z,15.00
2022-12-17T15:23:31.851Z,15.05
2022-12-17T15:27:00.958Z,15.04
2022-12-17T15:30:03.232Z,14.99
2022-12-17T15:33:06.725Z,14.85
2022-12-17T15:36:11.547Z,14.78
2022-12-17T15:39:13.694Z,14.84
2022-12-17T15:43:05.833Z,14.95
2022-12-17T15:46:39.971Z,15.37
2022-12-17T15:49:46.331Z,15.40
2022-12-17T15:52:51.617Z,15.52
2022-12-17T15:56:06.313Z,15.63
2022-12-17T15:59:20.289Z,15.79
2022-12-17T16:02:43.148Z,16.30
2022-12-17T16:06:27.806Z,16.12
2022-12-17T16:09:30.163Z,16.72
2022-12-17T16:12:33.917Z,17.47
2022-12-17T16:15:36.450Z,16.57
2022-12-17T16:18:39.471Z,15.75
2022-12-17T16:21:46.672Z,15.34
2022-12-17T16:24:50.476Z,15.11
2022-12-17T16:27:52.656Z,14.84
2022-12-17T16:31:10.758Z,14.64
2022-12-17T16:34:15.035Z,14.96
2022-12-17T16:37:18.311Z,15.32
2022-12-17T16:40:21.992Z,15.62
2022-12-17T16:43:25.394Z,16.25
2022-12-17T16:46:31.730Z,15.84
2022-12-17T16:49:34.100Z,15.34
2022-12-17T16:52:37.943Z,15.16
2022-12-17T16:55:47.025Z,14.98
2022-12-17T16:58:49.705Z,14.77
2022-12-17T17:01:52.836Z,14.81
2022-12-17T17:04:55.148Z,14.85
2022-12-17T17:08:00.642Z,14.84
2022-12-17T17:11:19.454Z,14.96
2022-12-17T17:14:21.699Z,14.94
2022-12-17T17:17:54.085Z,14.83
2022-12-17T17:20:50.740Z,14.76
2022-12-17T17:23:57.298Z,14.77
2022-12-17T17:26:59.460Z,14.75
2022-12-17T17:30:03.840Z,14.63
2022-12-17T17:33:06.531Z,14.87
2022-12-17T17:36:14.353Z,14.57
2022-12-17T17:39:17.702Z,14.46
2022-12-17T17:42:19.863Z,14.44
2022-12-17T17:45:22.857Z,14.40
2022-12-17T17:48:27.084Z,14.37
2022-12-17T17:52:07.316Z,14.31
2022-12-17T17:54:58.095Z,14.28
2022-12-17T17:58:00.323Z,14.35
2022-12-17T18:01:13.855Z,14.22
2022-12-17T18:04:21.051Z,14.29
2022-12-17T18:07:26.398Z,14.51
2022-12-17T18:10:29.795Z,14.76
2022-12-17T18:13:51.298Z,14.54
2022-12-17T18:16:55.260Z,14.51
2022-12-17T18:19:57.366Z,14.35
2022-12-17T18:22:59.550Z,14.49
2022-12-17T18:26:10.091Z,14.70
2022-12-17T18:29:16.841Z,14.57
2022-12-17T18:32:18.841Z,14.41
2022-12-17T18:35:22.064Z,14.51
2022-12-17T18:38:25.273Z,14.45
2022-12-17T18:41:46.939Z,14.41
2022-12-17T18:44:49.300Z,14.52
2022-12-17T18:47:52.303Z,14.49
2022-12-17T18:50:55.414Z,14.60
2022-12-17T18:54:07.539Z,14.49
2022-12-17T18:57:45.433Z,14.23
2022-12-17T19:00:47.619Z,14.34
2022-12-17T19:03:53.102Z,14.15
2022-12-17T19:06:55.363Z,14.31
2022-12-17T19:10:02.803Z,15.10
2022-12-17T19:13:06.250Z,15.62
2022-12-17T19:16:11.898Z,16.00
2022-12-17T19:19:18.260Z,15.84
2022-12-17T19:27:31.260Z,19.70
2022-12-17T19:30:47.880Z,19.68
2022-12-17T19:33:57.740Z,19.39
2022-12-17T19:37:25.449Z,18.92
2022-12-17T19:40:41.642Z,18.93
2022-12-17T19:47:35.085Z,18.61
2022-12-17T19:54:04.759Z,18.40
2022-12-17T19:57:11.807Z,18.34
2022-12-17T20:00:37.281Z,18.34
2022-12-17T20:03:46.603Z,18.23
2022-12-17T20:07:10.208Z,18.15
2022-12-17T20:10:27.077Z,17.23
2022-12-17T20:13:31.099Z,17.51
2022-12-17T20:16:39.219Z,18.23
2022-12-17T20:19:43.828Z,18.65
2022-12-17T20:22:51.727Z,19.35
2022-12-17T20:26:13.947Z,18.87
2022-12-17T20:29:23.327Z,20.46
2022-12-17T20:32:32.437Z,21.68
2022-12-17T20:35:42.388Z,22.26
2022-12-17T20:38:47.822Z,22.52
2022-12-17T20:41:57.620Z,22.85
2022-12-17T20:44:59.957Z,22.70
2022-12-17T20:48:05.374Z,22.67
2022-12-17T20:51:10.114Z,22.88
2022-12-17T20:54:16.114Z,23.10
2022-12-17T20:57:23.270Z,23.34
2022-12-17T21:00:38.954Z,23.29
2022-12-17T21:03:45.957Z,22.55
2022-12-17T21:06:50.289Z,22.54
2022-12-17T21:09:54.673Z,22.39
2022-12-17T21:13:19.711Z,22.21
2022-12-17T21:16:41.849Z,22.40
2022-12-17T21:19:47.140Z,20.83
2022-12-17T21:22:51.683Z,19.24
2022-12-17T21:26:08.808Z,18.57
2022-12-17T21:29:14.837Z,18.09
2022-12-17T21:32:16.945Z,17.99
2022-12-17T21:35:19.240Z,17.81
2022-12-17T21:38:21.403Z,17.67
2022-12-17T21:41:26.753Z,17.66
2022-12-17T21:44:28.764Z,17.32
2022-12-17T21:47:33.887Z,17.09
2022-12-17T21:50:40.794Z,17.12
2022-12-17T21:53:43.858Z,17.00
2022-12-17T21:56:45.949Z,17.13
2022-12-17T21:59:48.116Z,16.99
2022-12-17T22:02:51.130Z,16.93
2022-12-17T22:05:53.411Z,16.96
2022-12-17T22:09:01.505Z,16.85
2022-12-17T22:12:31.168Z,16.88
2022-12-17T22:15:34.479Z,16.83
2022-12-17T22:18:45.339Z,16.90
2022-12-17T22:21:49.357Z,16.78
2022-12-17T22:24:51.885Z,16.60
2022-12-17T22:27:54.232Z,16.57
2022-12-17T22:31:15.272Z,16.44
2022-12-17T22:34:58.080Z,16.34
2022-12-17T22:39:34.915Z,16.12
2022-12-17T22:44:36.892Z,16.00
2022-12-17T22:44:51.859Z,16.08
2022-12-17T22:47:52.155Z,16.02
2022-12-17T22:51:06.562Z,15.87
2022-12-17T22:54:13.416Z,15.77
2022-12-17T22:57:35.942Z,15.74
2022-12-17T23:00:38.196Z,15.75
2022-12-17T23:03:41.693Z,15.66
2022-12-17T23:06:45.860Z,15.69
2022-12-17T23:09:47.929Z,15.68
2022-12-17T23:12:54.361Z,15.70
2022-12-17T23:15:56.560Z,15.86
2022-12-17T23:19:02.328Z,15.70
2022-12-17T23:22:04.411Z,15.70
2022-12-17T23:25:07.120Z,15.83
2022-12-17T23:28:09.187Z,15.61
2022-12-17T23:31:14.615Z,15.50
2022-12-17T23:34:16.737Z,15.26
2022-12-17T23:37:18.846Z,15.44
2022-12-17T23:40:21.532Z,15.41
2022-12-17T23:43:23.618Z,15.42
2022-12-17T23:46:29.938Z,15.35
2022-12-17T23:49:32.574Z,15.48
2022-12-17T23:52:38.363Z,15.43
2022-12-17T23:55:40.494Z,15.23
2022-12-17T23:58:43.986Z,15.29
